sensor_id;sensor_type;location;lat;lon;timestamp;P1;durP1;ratioP1;P2;durP2;ratioP2
23866;SDS011;12114;53.404;-1.502;2023-01-15T00:00:38;5.70;;;1.08;;
23866;SDS011;12114;53.404;-1.502;2023-01-15T00:03:03;8.23;;;1.50;;
23866;SDS011;12114;53.404;-1.502;2023-01-15T00:05:29;8.43;;;1.35;;
23866;SDS011;12114;53.404;-1.502;2023-01-15T00:07:55;5.28;;;1.20;;
23866;SDS011;12114;53.404;-1.502;2023-01-15T00:10:20;7.80;;;1.33;;
23866;SDS011;12114;53.404;-1.502;2023-01-15T00:12:46;8.10;;;0.90;;
23866;SDS011;12114;53.404;-1.502;2023-01-15T00:15:13;10.02;;;1.42;;
23866;SDS011;12114;53.404;-1.502;2023-01-15T00:17:39;5.93;;;1.20;;
23866;SDS011;12114;53.404;-1.502;2023-01-15T00:20:04;9.98;;;1.27;;
23866;SDS011;12114;53.404;-1.502;2023-01-15T00:22:30;10.30;;;1.52;;
23866;SDS011;12114;53.404;-1.502;2023-01-15T00:24:55;4.32;;;1.02;;
23866;SDS011;12114;53.404;-1.502;2023-01-15T00:27:39;5.43;;;1.30;;
23866;SDS011;12114;53.404;-1.502;2023-01-15T00:30:07;6.07;;;0.90;;
23866;SDS011;12114;53.404;-1.502;2023-01-15T00:32:32;9.10;;;1.45;;
23866;SDS011;12114;53.404;-1.502;2023-01-15T00:34:58;6.80;;;0.95;;
23866;SDS011;12114;53.404;-1.502;2023-01-15T00:37:23;7.35;;;1.30;;
23866;SDS011;12114;53.404;-1.502;2023-01-15T00:39:49;12.85;;;1.65;;
23866;SDS011;12114;53.404;-1.502;2023-01-15T00:42:15;8.60;;;1.20;;
23866;SDS011;12114;53.404;-1.502;2023-01-15T00:44:42;10.20;;;1.27;;
23866;SDS011;12114;53.404;-1.502;2023-01-15T00:47:07;6.90;;;1.42;;
23866;SDS011;12114;53.404;-1.502;2023-01-15T00:49:38;8.20;;;1.25;;
23866;SDS011;12114;53.404;-1.502;2023-01-15T00:52:03;11.68;;;1.50;;
23866;SDS011;12114;53.404;-1.502;2023-01-15T00:54:29;5.60;;;1.00;;
23866;SDS011;12114;53.404;-1.502;2023-01-15T00:56:55;9.60;;;1.45;;
23866;SDS011;12114;53.404;-1.502;2023-01-15T00:59:20;5.45;;;1.10;;
23866;SDS011;12114;53.404;-1.502;2023-01-15T01:01:48;10.52;;;1.52;;
23866;SDS011;12114;53.404;-1.502;2023-01-15T01:04:14;4.97;;;1.00;;
23866;SDS011;12114;53.404;-1.502;2023-01-15T01:06:39;10.25;;;1.33;;
23866;SDS011;12114;53.404;-1.502;2023-01-15T01:09:05;12.27;;;1.58;;
23866;SDS011;12114;53.404;-1.502;2023-01-15T01:11:30;7.72;;;1.15;;
23866;SDS011;12114;53.404;-1.502;2023-01-15T01:13:58;4.63;;;0.77;;
23866;SDS011;12114;53.404;-1.502;2023-01-15T01:18:50;5.13;;;1.00;;
23866;SDS011;12114;53.404;-1.502;2023-01-15T01:21:16;6.85;;;1.02;;
23866;SDS011;12114;53.404;-1.502;2023-01-15T01:23:42;6.78;;;0.90;;
23866;SDS011;12114;53.404;-1.502;2023-01-15T01:26:08;5.72;;;0.73;;
23866;SDS011;12114;53.404;-1.502;2023-01-15T01:28:34;8.52;;;1.27;;
23866;SDS011;12114;53.404;-1.502;2023-01-15T01:30:59;6.18;;;0.90;;
23866;SDS011;12114;53.404;-1.502;2023-01-15T01:33:28;5.95;;;0.85;;
23866;SDS011;12114;53.404;-1.502;2023-01-15T01:35:53;7.00;;;1.27;;
23866;SDS011;12114;53.404;-1.502;2023-01-15T01:38:19;5.63;;;0.93;;
23866;SDS011;12114;53.404;-1.502;2023-01-15T01:40:44;4.75;;;0.73;;
23866;SDS011;12114;53.404;-1.502;2023-01-15T01:43:21;6.47;;;1.30;;
23866;SDS011;12114;53.404;-1.502;2023-01-15T01:45:46;9.48;;;0.93;;
23866;SDS011;12114;53.404;-1.502;2023-01-15T01:48:12;7.45;;;1.30;;
23866;SDS011;12114;53.404;-1.502;2023-01-15T01:50:38;10.75;;;1.00;;
23866;SDS011;12114;53.404;-1.502;2023-01-15T01:53:25;9.27;;;0.90;;
23866;SDS011;12114;53.404;-1.502;2023-01-15T01:55:50;6.53;;;0.88;;
23866;SDS011;12114;53.404;-1.502;2023-01-15T01:58:16;8.27;;;1.27;;
23866;SDS011;12114;53.404;-1.502;2023-01-15T02:00:43;5.72;;;1.33;;
23866;SDS011;12114;53.404;-1.502;2023-01-15T02:03:10;5.95;;;0.80;;
23866;SDS011;12114;53.404;-1.502;2023-01-15T02:05:37;5.25;;;0.93;;
23866;SDS011;12114;53.404;-1.502;2023-01-15T02:08:04;7.78;;;1.00;;
23866;SDS011;12114;53.404;-1.502;2023-01-15T02:10:29;6.70;;;1.00;;
23866;SDS011;12114;53.404;-1.502;2023-01-15T02:12:59;7.05;;;0.82;;
23866;SDS011;12114;53.404;-1.502;2023-01-15T02:15:27;5.55;;;0.90;;
23866;SDS011;12114;53.404;-1.502;2023-01-15T02:18:17;5.85;;;0.90;;
23866;SDS011;12114;53.404;-1.502;2023-01-15T02:20:49;6.70;;;1.48;;
23866;SDS011;12114;53.404;-1.502;2023-01-15T02:28:29;8.10;;;1.10;;
23866;SDS011;12114;53.404;-1.502;2023-01-15T02:30:58;10.73;;;1.27;;
23866;SDS011;12114;53.404;-1.502;2023-01-15T02:33:31;7.40;;;0.95;;
23866;SDS011;12114;53.404;-1.502;2023-01-15T02:35:59;7.45;;;1.60;;
23866;SDS011;12114;53.404;-1.502;2023-01-15T02:38:31;10.15;;;1.10;;
23866;SDS011;12114;53.404;-1.502;2023-01-15T02:41:00;10.00;;;1.67;;
23866;SDS011;12114;53.404;-1.502;2023-01-15T02:43:26;4.13;;;0.82;;
23866;SDS011;12114;53.404;-1.502;2023-01-15T02:45:54;4.13;;;0.93;;
23866;SDS011;12114;53.404;-1.502;2023-01-15T02:48:23;8.57;;;1.00;;
23866;SDS011;12114;53.404;-1.502;2023-01-15T02:50:52;7.07;;;1.10;;
23866;SDS011;12114;53.404;-1.502;2023-01-15T02:53:23;7.22;;;1.40;;
23866;SDS011;12114;53.404;-1.502;2023-01-15T02:55:49;3.85;;;1.08;;
23866;SDS011;12114;53.404;-1.502;2023-01-15T02:58:17;7.22;;;1.10;;
23866;SDS011;12114;53.404;-1.502;2023-01-15T03:00:45;4.53;;;0.75;;
23866;SDS011;12114;53.404;-1.502;2023-01-15T03:03:32;2.65;;;0.68;;
23866;SDS011;12114;53.404;-1.502;2023-01-15T03:06:01;5.25;;;0.98;;
23866;SDS011;12114;53.404;-1.502;2023-01-15T03:08:29;5.78;;;0.82;;
23866;SDS011;12114;53.404;-1.502;2023-01-15T03:11:13;4.35;;;0.80;;
23866;SDS011;12114;53.404;-1.502;2023-01-15T03:13:43;10.55;;;1.40;;
23866;SDS011;12114;53.404;-1.502;2023-01-15T03:16:33;8.35;;;1.10;;
23866;SDS011;12114;53.404;-1.502;2023-01-15T03:19:36;2.97;;;0.63;;
23866;SDS011;12114;53.404;-1.502;2023-01-15T03:21:54;3.55;;;0.60;;
23866;SDS011;12114;53.404;-1.502;2023-01-15T03:24:26;6.63;;;1.20;;
23866;SDS011;12114;53.404;-1.502;2023-01-15T03:26:53;6.38;;;1.27;;
23866;SDS011;12114;53.404;-1.502;2023-01-15T03:29:19;5.68;;;1.25;;
23866;SDS011;12114;53.404;-1.502;2023-01-15T03:31:45;7.90;;;1.30;;
23866;SDS011;12114;53.404;-1.502;2023-01-15T03:34:10;7.45;;;1.15;;
23866;SDS011;12114;53.404;-1.502;2023-01-15T03:36:36;5.80;;;0.90;;
23866;SDS011;12114;53.404;-1.502;2023-01-15T03:39:02;5.82;;;1.10;;
23866;SDS011;12114;53.404;-1.502;2023-01-15T03:41:40;5.35;;;1.00;;
23866;SDS011;12114;53.404;-1.502;2023-01-15T03:46:38;9.95;;;1.00;;
23866;SDS011;12114;53.404;-1.502;2023-01-15T03:51:37;9.68;;;1.13;;
23866;SDS011;12114;53.404;-1.502;2023-01-15T03:54:06;7.53;;;1.17;;
23866;SDS011;12114;53.404;-1.502;2023-01-15T03:56:35;3.97;;;1.00;;
23866;SDS011;12114;53.404;-1.502;2023-01-15T03:59:12;6.22;;;0.90;;
23866;SDS011;12114;53.404;-1.502;2023-01-15T04:01:40;6.75;;;1.10;;
23866;SDS011;12114;53.404;-1.502;2023-01-15T04:04:06;6.97;;;1.48;;
23866;SDS011;12114;53.404;-1.502;2023-01-15T04:06:33;4.45;;;1.02;;
23866;SDS011;12114;53.404;-1.502;2023-01-15T04:09:00;7.90;;;1.30;;
23866;SDS011;12114;53.404;-1.502;2023-01-15T04:11:27;5.68;;;1.15;;
23866;SDS011;12114;53.404;-1.502;2023-01-15T04:13:53;5.18;;;0.93;;
23866;SDS011;12114;53.404;-1.502;2023-01-15T04:16:26;4.57;;;0.85;;
23866;SDS011;12114;53.404;-1.502;2023-01-15T04:18:52;8.30;;;1.30;;
23866;SDS011;12114;53.404;-1.502;2023-01-15T04:21:18;6.05;;;1.00;;
23866;SDS011;12114;53.404;-1.502;2023-01-15T04:23:43;8.10;;;1.30;;
23866;SDS011;12114;53.404;-1.502;2023-01-15T04:26:10;5.05;;;0.77;;
23866;SDS011;12114;53.404;-1.502;2023-01-15T04:28:36;6.20;;;1.40;;
23866;SDS011;12114;53.404;-1.502;2023-01-15T04:31:01;5.13;;;0.88;;
23866;SDS011;12114;53.404;-1.502;2023-01-15T04:33:27;3.60;;;0.82;;
23866;SDS011;12114;53.404;-1.502;2023-01-15T04:35:52;6.25;;;0.80;;
23866;SDS011;12114;53.404;-1.502;2023-01-15T04:38:17;2.53;;;0.63;;
23866;SDS011;12114;53.404;-1.502;2023-01-15T04:40:43;3.22;;;0.82;;
23866;SDS011;12114;53.404;-1.502;2023-01-15T04:43:28;2.95;;;0.70;;
23866;SDS011;12114;53.404;-1.502;2023-01-15T04:46:12;5.90;;;0.75;;
23866;SDS011;12114;53.404;-1.502;2023-01-15T04:48:39;7.05;;;0.75;;
23866;SDS011;12114;53.404;-1.502;2023-01-15T04:51:05;5.63;;;0.80;;
23866;SDS011;12114;53.404;-1.502;2023-01-15T04:53:31;4.20;;;0.77;;
23866;SDS011;12114;53.404;-1.502;2023-01-15T04:56:00;5.45;;;0.80;;
23866;SDS011;12114;53.404;-1.502;2023-01-15T04:58:26;4.00;;;0.85;;
23866;SDS011;12114;53.404;-1.502;2023-01-15T05:00:52;8.13;;;0.80;;
23866;SDS011;12114;53.404;-1.502;2023-01-15T05:03:17;6.05;;;0.77;;
23866;SDS011;12114;53.404;-1.502;2023-01-15T05:05:42;5.47;;;0.70;;
23866;SDS011;12114;53.404;-1.502;2023-01-15T05:08:09;5.50;;;1.15;;
23866;SDS011;12114;53.404;-1.502;2023-01-15T05:10:34;3.80;;;0.77;;
23866;SDS011;12114;53.404;-1.502;2023-01-15T05:12:59;3.78;;;0.70;;
23866;SDS011;12114;53.404;-1.502;2023-01-15T05:15:25;2.55;;;0.50;;
23866;SDS011;12114;53.404;-1.502;2023-01-15T05:17:51;7.57;;;0.60;;
23866;SDS011;12114;53.404;-1.502;2023-01-15T05:20:16;4.82;;;0.73;;
23866;SDS011;12114;53.404;-1.502;2023-01-15T05:22:42;5.70;;;1.15;;
23866;SDS011;12114;53.404;-1.502;2023-01-15T05:25:07;5.00;;;0.80;;
23866;SDS011;12114;53.404;-1.502;2023-01-15T05:27:32;7.32;;;1.10;;
23866;SDS011;12114;53.404;-1.502;2023-01-15T05:29:58;4.25;;;0.90;;
23866;SDS011;12114;53.404;-1.502;2023-01-15T05:32:23;2.30;;;0.82;;
23866;SDS011;12114;53.404;-1.502;2023-01-15T05:34:48;6.55;;;1.35;;
23866;SDS011;12114;53.404;-1.502;2023-01-15T05:37:14;6.35;;;0.95;;
23866;SDS011;12114;53.404;-1.502;2023-01-15T05:39:39;2.63;;;0.73;;
23866;SDS011;12114;53.404;-1.502;2023-01-15T05:42:05;7.22;;;1.10;;
23866;SDS011;12114;53.404;-1.502;2023-01-15T05:44:32;6.28;;;1.42;;
23866;SDS011;12114;53.404;-1.502;2023-01-15T05:46:59;5.60;;;0.90;;
23866;SDS011;12114;53.404;-1.502;2023-01-15T05:49:27;3.13;;;0.70;;
23866;SDS011;12114;53.404;-1.502;2023-01-15T05:51:54;4.22;;;0.90;;
23866;SDS011;12114;53.404;-1.502;2023-01-15T05:54:24;2.92;;;0.93;;
23866;SDS011;12114;53.404;-1.502;2023-01-15T05:56:49;4.32;;;0.60;;
23866;SDS011;12114;53.404;-1.502;2023-01-15T05:59:16;6.18;;;0.70;;
23866;SDS011;12114;53.404;-1.502;2023-01-15T06:01:42;3.03;;;0.68;;
23866;SDS011;12114;53.404;-1.502;2023-01-15T06:04:09;4.97;;;0.70;;
23866;SDS011;12114;53.404;-1.502;2023-01-15T06:06:34;3.47;;;0.85;;
23866;SDS011;12114;53.404;-1.502;2023-01-15T06:09:00;5.35;;;0.70;;
23866;SDS011;12114;53.404;-1.502;2023-01-15T06:11:25;3.90;;;0.70;;
23866;SDS011;12114;53.404;-1.502;2023-01-15T06:13:51;2.70;;;0.93;;
23866;SDS011;12114;53.404;-1.502;2023-01-15T06:16:16;5.45;;;0.68;;
23866;SDS011;12114;53.404;-1.502;2023-01-15T06:18:42;6.97;;;0.98;;
23866;SDS011;12114;53.404;-1.502;2023-01-15T06:21:09;3.17;;;0.60;;
23866;SDS011;12114;53.404;-1.502;2023-01-15T06:23:35;2.47;;;0.75;;
23866;SDS011;12114;53.404;-1.502;2023-01-15T06:26:01;4.07;;;0.90;;
23866;SDS011;12114;53.404;-1.502;2023-01-15T06:28:27;5.63;;;1.20;;
23866;SDS011;12114;53.404;-1.502;2023-01-15T06:30:52;2.58;;;1.25;;
23866;SDS011;12114;53.404;-1.502;2023-01-15T06:33:18;2.72;;;0.90;;
23866;SDS011;12114;53.404;-1.502;2023-01-15T06:35:44;6.93;;;1.27;;
23866;SDS011;12114;53.404;-1.502;2023-01-15T06:38:09;2.63;;;1.10;;
23866;SDS011;12114;53.404;-1.502;2023-01-15T06:40:35;5.60;;;1.38;;
23866;SDS011;12114;53.404;-1.502;2023-01-15T06:43:00;6.38;;;1.00;;
23866;SDS011;12114;53.404;-1.502;2023-01-15T06:45:44;2.95;;;0.93;;
23866;SDS011;12114;53.404;-1.502;2023-01-15T06:48:31;4.40;;;1.05;;
23866;SDS011;12114;53.404;-1.502;2023-01-15T06:50:57;4.72;;;1.05;;
23866;SDS011;12114;53.404;-1.502;2023-01-15T06:53:24;6.03;;;1.15;;
23866;SDS011;12114;53.404;-1.502;2023-01-15T06:55:49;5.97;;;1.67;;
23866;SDS011;12114;53.404;-1.502;2023-01-15T06:58:14;3.33;;;1.00;;
23866;SDS011;12114;53.404;-1.502;2023-01-15T07:00:40;1.70;;;0.77;;
23866;SDS011;12114;53.404;-1.502;2023-01-15T07:03:09;3.70;;;1.00;;
23866;SDS011;12114;53.404;-1.502;2023-01-15T07:05:38;4.03;;;1.20;;
23866;SDS011;12114;53.404;-1.502;2023-01-15T07:08:04;2.53;;;1.10;;
23866;SDS011;12114;53.404;-1.502;2023-01-15T07:10:29;3.70;;;1.05;;
23866;SDS011;12114;53.404;-1.502;2023-01-15T07:12:54;3.83;;;1.33;;
23866;SDS011;12114;53.404;-1.502;2023-01-15T07:15:20;3.80;;;1.30;;
23866;SDS011;12114;53.404;-1.502;2023-01-15T07:17:48;3.28;;;1.10;;
23866;SDS011;12114;53.404;-1.502;2023-01-15T07:20:13;3.20;;;1.20;;
23866;SDS011;12114;53.404;-1.502;2023-01-15T07:22:39;6.15;;;1.33;;
23866;SDS011;12114;53.404;-1.502;2023-01-15T07:25:04;3.25;;;0.90;;
23866;SDS011;12114;53.404;-1.502;2023-01-15T07:27:30;2.13;;;0.98;;
23866;SDS011;12114;53.404;-1.502;2023-01-15T07:29:56;2.80;;;1.00;;
23866;SDS011;12114;53.404;-1.502;2023-01-15T07:32:21;2.55;;;0.90;;
23866;SDS011;12114;53.404;-1.502;2023-01-15T07:34:47;2.08;;;1.02;;
23866;SDS011;12114;53.404;-1.502;2023-01-15T07:37:12;0.90;;;0.70;;
23866;SDS011;12114;53.404;-1.502;2023-01-15T07:39:37;1.20;;;0.60;;
23866;SDS011;12114;53.404;-1.502;2023-01-15T07:42:03;1.23;;;0.80;;
23866;SDS011;12114;53.404;-1.502;2023-01-15T07:44:47;4.18;;;1.25;;
23866;SDS011;12114;53.404;-1.502;2023-01-15T07:47:31;2.35;;;0.55;;
23866;SDS011;12114;53.404;-1.502;2023-01-15T07:50:29;1.35;;;0.57;;
23866;SDS011;12114;53.404;-1.502;2023-01-15T07:52:54;1.73;;;0.77;;
23866;SDS011;12114;53.404;-1.502;2023-01-15T07:55:20;3.50;;;0.52;;
23866;SDS011;12114;53.404;-1.502;2023-01-15T07:57:46;2.88;;;0.68;;
23866;SDS011;12114;53.404;-1.502;2023-01-15T08:00:13;1.90;;;0.50;;
23866;SDS011;12114;53.404;-1.502;2023-01-15T08:02:39;2.97;;;0.60;;
23866;SDS011;12114;53.404;-1.502;2023-01-15T08:05:05;1.80;;;0.77;;
23866;SDS011;12114;53.404;-1.502;2023-01-15T08:07:35;3.63;;;0.50;;
23866;SDS011;12114;53.404;-1.502;2023-01-15T08:10:01;3.50;;;0.65;;
23866;SDS011;12114;53.404;-1.502;2023-01-15T08:12:26;1.65;;;0.40;;
23866;SDS011;12114;53.404;-1.502;2023-01-15T08:15:10;2.83;;;0.68;;
23866;SDS011;12114;53.404;-1.502;2023-01-15T08:17:39;2.50;;;0.47;;
23866;SDS011;12114;53.404;-1.502;2023-01-15T08:20:07;0.50;;;0.20;;
23866;SDS011;12114;53.404;-1.502;2023-01-15T08:22:34;0.93;;;0.13;;
23866;SDS011;12114;53.404;-1.502;2023-01-15T08:24:59;2.65;;;0.25;;
23866;SDS011;12114;53.404;-1.502;2023-01-15T08:27:25;2.03;;;0.38;;
23866;SDS011;12114;53.404;-1.502;2023-01-15T08:29:51;1.20;;;0.28;;
23866;SDS011;12114;53.404;-1.502;2023-01-15T08:32:17;0.50;;;0.20;;
23866;SDS011;12114;53.404;-1.502;2023-01-15T08:34:42;0.63;;;0.30;;
23866;SDS011;12114;53.404;-1.502;2023-01-15T08:37:07;0.85;;;0.30;;
23866;SDS011;12114;53.404;-1.502;2023-01-15T08:39:33;0.38;;;0.10;;
23866;SDS011;12114;53.404;-1.502;2023-01-15T08:41:59;1.27;;;0.28;;
23866;SDS011;12114;53.404;-1.502;2023-01-15T08:44:24;1.38;;;0.25;;
23866;SDS011;12114;53.404;-1.502;2023-01-15T08:46:51;0.68;;;0.30;;
23866;SDS011;12114;53.404;-1.502;2023-01-15T08:49:17;0.47;;;0.25;;
23866;SDS011;12114;53.404;-1.502;2023-01-15T08:51:43;0.65;;;0.20;;
23866;SDS011;12114;53.404;-1.502;2023-01-15T08:54:09;0.10;;;0.10;;
23866;SDS011;12114;53.404;-1.502;2023-01-15T08:56:34;2.60;;;0.40;;
23866;SDS011;12114;53.404;-1.502;2023-01-15T08:59:02;0.40;;;0.20;;
23866;SDS011;12114;53.404;-1.502;2023-01-15T09:01:29;0.40;;;0.20;;
23866;SDS011;12114;53.404;-1.502;2023-01-15T09:03:54;0.20;;;0.10;;
23866;SDS011;12114;53.404;-1.502;2023-01-15T09:06:20;0.75;;;0.30;;
23866;SDS011;12114;53.404;-1.502;2023-01-15T09:08:45;0.40;;;0.22;;
23866;SDS011;12114;53.404;-1.502;2023-01-15T09:11:10;0.73;;;0.20;;
23866;SDS011;12114;53.404;-1.502;2023-01-15T09:13:37;0.95;;;0.40;;
23866;SDS011;12114;53.404;-1.502;2023-01-15T09:16:03;1.50;;;0.40;;
23866;SDS011;12114;53.404;-1.502;2023-01-15T09:18:29;1.02;;;0.50;;
23866;SDS011;12114;53.404;-1.502;2023-01-15T09:20:54;0.65;;;0.35;;
23866;SDS011;12114;53.404;-1.502;2023-01-15T09:23:19;0.90;;;0.38;;
23866;SDS011;12114;53.404;-1.502;2023-01-15T09:25:54;1.35;;;0.38;;
23866;SDS011;12114;53.404;-1.502;2023-01-15T09:28:20;0.57;;;0.40;;
23866;SDS011;12114;53.404;-1.502;2023-01-15T09:30:45;1.20;;;0.40;;
23866;SDS011;12114;53.404;-1.502;2023-01-15T09:33:11;1.73;;;0.50;;
23866;SDS011;12114;53.404;-1.502;2023-01-15T09:35:36;3.70;;;0.82;;
23866;SDS011;12114;53.404;-1.502;2023-01-15T09:38:02;0.93;;;0.47;;
23866;SDS011;12114;53.404;-1.502;2023-01-15T09:43:04;4.00;;;0.60;;
23866;SDS011;12114;53.404;-1.502;2023-01-15T09:45:35;4.43;;;0.80;;
23866;SDS011;12114;53.404;-1.502;2023-01-15T09:55:50;3.27;;;1.10;;
23866;SDS011;12114;53.404;-1.502;2023-01-15T09:58:19;3.13;;;1.13;;
23866;SDS011;12114;53.404;-1.502;2023-01-15T10:00:46;3.15;;;1.10;;
23866;SDS011;12114;53.404;-1.502;2023-01-15T10:08:26;4.53;;;0.93;;
23866;SDS011;12114;53.404;-1.502;2023-01-15T10:10:58;4.95;;;0.60;;
23866;SDS011;12114;53.404;-1.502;2023-01-15T10:13:30;3.97;;;0.60;;
23866;SDS011;12114;53.404;-1.502;2023-01-15T10:15:58;3.28;;;0.50;;
23866;SDS011;12114;53.404;-1.502;2023-01-15T10:18:24;2.97;;;0.70;;
23866;SDS011;12114;53.404;-1.502;2023-01-15T10:26:12;4.45;;;0.43;;
23866;SDS011;12114;53.404;-1.502;2023-01-15T10:31:21;3.97;;;0.60;;
23866;SDS011;12114;53.404;-1.502;2023-01-15T10:38:58;3.85;;;0.70;;
23866;SDS011;12114;53.404;-1.502;2023-01-15T10:41:28;4.55;;;0.90;;
23866;SDS011;12114;53.404;-1.502;2023-01-15T10:43:58;6.70;;;1.27;;
23866;SDS011;12114;53.404;-1.502;2023-01-15T10:46:26;5.88;;;1.10;;
23866;SDS011;12114;53.404;-1.502;2023-01-15T10:49:18;7.40;;;1.05;;
23866;SDS011;12114;53.404;-1.502;2023-01-15T10:56:57;1.50;;;0.50;;
23866;SDS011;12114;53.404;-1.502;2023-01-15T10:59:44;5.57;;;1.30;;
23866;SDS011;12114;53.404;-1.502;2023-01-15T11:04:53;6.88;;;1.55;;
23866;SDS011;12114;53.404;-1.502;2023-01-15T11:07:23;4.93;;;2.17;;
23866;SDS011;12114;53.404;-1.502;2023-01-15T11:09:50;6.43;;;1.65;;
23866;SDS011;12114;53.404;-1.502;2023-01-15T11:12:22;6.93;;;1.60;;
23866;SDS011;12114;53.404;-1.502;2023-01-15T11:14:49;2.38;;;0.85;;
23866;SDS011;12114;53.404;-1.502;2023-01-15T11:17:40;1.90;;;0.70;;
23866;SDS011;12114;53.404;-1.502;2023-01-15T11:20:42;2.72;;;1.00;;
23866;SDS011;12114;53.404;-1.502;2023-01-15T11:23:12;2.55;;;1.30;;
23866;SDS011;12114;53.404;-1.502;2023-01-15T11:25:46;3.17;;;1.10;;
23866;SDS011;12114;53.404;-1.502;2023-01-15T11:28:11;3.75;;;1.17;;
23866;SDS011;12114;53.404;-1.502;2023-01-15T11:30:40;2.85;;;0.85;;
23866;SDS011;12114;53.404;-1.502;2023-01-15T11:33:16;2.47;;;0.80;;
23866;SDS011;12114;53.404;-1.502;2023-01-15T11:35:48;2.15;;;0.60;;
23866;SDS011;12114;53.404;-1.502;2023-01-15T11:38:13;4.03;;;0.77;;
23866;SDS011;12114;53.404;-1.502;2023-01-15T11:40:39;4.68;;;1.02;;
23866;SDS011;12114;53.404;-1.502;2023-01-15T11:43:18;4.78;;;0.80;;
23866;SDS011;12114;53.404;-1.502;2023-01-15T11:46:02;5.53;;;1.08;;
23866;SDS011;12114;53.404;-1.502;2023-01-15T11:49:07;3.17;;;0.98;;
23866;SDS011;12114;53.404;-1.502;2023-01-15T11:51:50;8.15;;;1.08;;
23866;SDS011;12114;53.404;-1.502;2023-01-15T11:54:17;6.40;;;1.10;;
23866;SDS011;12114;53.404;-1.502;2023-01-15T11:56:43;4.85;;;1.63;;
23866;SDS011;12114;53.404;-1.502;2023-01-15T11:59:14;7.20;;;1.48;;
23866;SDS011;12114;53.404;-1.502;2023-01-15T12:04:22;6.90;;;1.60;;
23866;SDS011;12114;53.404;-1.502;2023-01-15T12:06:48;6.32;;;1.30;;
23866;SDS011;12114;53.404;-1.502;2023-01-15T12:14:32;10.05;;;1.58;;
23866;SDS011;12114;53.404;-1.502;2023-01-15T12:24:46;5.95;;;1.77;;
23866;SDS011;12114;53.404;-1.502;2023-01-15T12:27:20;13.00;;;2.72;;
23866;SDS011;12114;53.404;-1.502;2023-01-15T12:29:49;10.10;;;2.13;;
23866;SDS011;12114;53.404;-1.502;2023-01-15T12:32:16;9.82;;;2.45;;
23866;SDS011;12114;53.404;-1.502;2023-01-15T12:34:51;6.55;;;2.17;;
23866;SDS011;12114;53.404;-1.502;2023-01-15T12:37:51;12.75;;;2.92;;
23866;SDS011;12114;53.404;-1.502;2023-01-15T12:42:37;7.50;;;2.70;;
23866;SDS011;12114;53.404;-1.502;2023-01-15T12:45:24;10.52;;;2.53;;
23866;SDS011;12114;53.404;-1.502;2023-01-15T12:47:53;10.65;;;2.78;;
23866;SDS011;12114;53.404;-1.502;2023-01-15T12:50:37;9.68;;;2.70;;
23866;SDS011;12114;53.404;-1.502;2023-01-15T12:55:53;8.75;;;2.38;;
23866;SDS011;12114;53.404;-1.502;2023-01-15T12:59:07;9.98;;;2.80;;
23866;SDS011;12114;53.404;-1.502;2023-01-15T13:01:09;6.18;;;2.83;;
23866;SDS011;12114;53.404;-1.502;2023-01-15T13:06:06;6.85;;;2.42;;
23866;SDS011;12114;53.404;-1.502;2023-01-15T13:11:17;5.75;;;2.90;;
23866;SDS011;12114;53.404;-1.502;2023-01-15T13:13:43;10.35;;;3.45;;
23866;SDS011;12114;53.404;-1.502;2023-01-15T13:21:37;11.80;;;4.65;;
23866;SDS011;12114;53.404;-1.502;2023-01-15T13:31:45;12.43;;;3.70;;
23866;SDS011;12114;53.404;-1.502;2023-01-15T13:34:21;7.15;;;2.05;;
23866;SDS011;12114;53.404;-1.502;2023-01-15T13:36:47;6.88;;;1.75;;
23866;SDS011;12114;53.404;-1.502;2023-01-15T13:39:15;8.02;;;2.78;;
23866;SDS011;12114;53.404;-1.502;2023-01-15T13:41:42;10.05;;;2.17;;
23866;SDS011;12114;53.404;-1.502;2023-01-15T13:44:29;5.00;;;2.35;;
23866;SDS011;12114;53.404;-1.502;2023-01-15T13:47:00;8.18;;;2.50;;
23866;SDS011;12114;53.404;-1.502;2023-01-15T13:49:29;9.73;;;2.80;;
23866;SDS011;12114;53.404;-1.502;2023-01-15T13:51:55;5.63;;;2.58;;
23866;SDS011;12114;53.404;-1.502;2023-01-15T13:54:22;8.50;;;2.42;;
23866;SDS011;12114;53.404;-1.502;2023-01-15T13:56:52;7.68;;;2.78;;
23866;SDS011;12114;53.404;-1.502;2023-01-15T14:01:58;10.85;;;4.05;;
23866;SDS011;12114;53.404;-1.502;2023-01-15T14:04:35;10.55;;;3.80;;
23866;SDS011;12114;53.404;-1.502;2023-01-15T14:07:01;11.45;;;3.80;;
23866;SDS011;12114;53.404;-1.502;2023-01-15T14:09:27;10.15;;;4.35;;
23866;SDS011;12114;53.404;-1.502;2023-01-15T14:22:55;17.33;;;4.32;;
23866;SDS011;12114;53.404;-1.502;2023-01-15T14:25:45;15.98;;;3.97;;
23866;SDS011;12114;53.404;-1.502;2023-01-15T14:36:21;14.25;;;4.57;;
23866;SDS011;12114;53.404;-1.502;2023-01-15T14:38:51;13.15;;;4.38;;
23866;SDS011;12114;53.404;-1.502;2023-01-15T14:41:23;14.50;;;4.20;;
23866;SDS011;12114;53.404;-1.502;2023-01-15T14:43:50;15.73;;;4.65;;
23866;SDS011;12114;53.404;-1.502;2023-01-15T14:46:27;14.65;;;4.38;;
23866;SDS011;12114;53.404;-1.502;2023-01-15T14:48:53;13.73;;;4.18;;
23866;SDS011;12114;53.404;-1.502;2023-01-15T14:51:27;16.15;;;4.22;;
23866;SDS011;12114;53.404;-1.502;2023-01-15T14:53:55;12.45;;;4.18;;
23866;SDS011;12114;53.404;-1.502;2023-01-15T14:58:51;15.85;;;5.53;;
23866;SDS011;12114;53.404;-1.502;2023-01-15T15:03:50;12.57;;;3.63;;
23866;SDS011;12114;53.404;-1.502;2023-01-15T15:06:18;12.50;;;4.22;;
23866;SDS011;12114;53.404;-1.502;2023-01-15T15:08:44;14.32;;;4.75;;
23866;SDS011;12114;53.404;-1.502;2023-01-15T15:11:23;13.70;;;4.28;;
23866;SDS011;12114;53.404;-1.502;2023-01-15T15:14:08;7.82;;;4.25;;
23866;SDS011;12114;53.404;-1.502;2023-01-15T15:16:39;20.80;;;5.15;;
23866;SDS011;12114;53.404;-1.502;2023-01-15T15:19:10;21.13;;;4.53;;
23866;SDS011;12114;53.404;-1.502;2023-01-15T15:21:39;15.32;;;4.10;;
23866;SDS011;12114;53.404;-1.502;2023-01-15T15:26:39;14.52;;;4.97;;
23866;SDS011;12114;53.404;-1.502;2023-01-15T15:29:06;15.77;;;6.50;;
23866;SDS011;12114;53.404;-1.502;2023-01-15T15:31:36;17.88;;;6.07;;
23866;SDS011;12114;53.404;-1.502;2023-01-15T15:34:02;13.88;;;5.30;;
23866;SDS011;12114;53.404;-1.502;2023-01-15T15:36:29;9.43;;;4.05;;
23866;SDS011;12114;53.404;-1.502;2023-01-15T15:38:57;13.13;;;4.53;;
23866;SDS011;12114;53.404;-1.502;2023-01-15T15:41:23;9.48;;;4.00;;
23866;SDS011;12114;53.404;-1.502;2023-01-15T15:44:14;14.85;;;5.38;;
23866;SDS011;12114;53.404;-1.502;2023-01-15T15:47:14;12.85;;;4.80;;
23866;SDS011;12114;53.404;-1.502;2023-01-15T15:49:58;9.38;;;4.60;;
23866;SDS011;12114;53.404;-1.502;2023-01-15T15:52:23;13.88;;;5.03;;
23866;SDS011;12114;53.404;-1.502;2023-01-15T15:55:01;12.85;;;5.38;;
23866;SDS011;12114;53.404;-1.502;2023-01-15T15:57:30;13.73;;;4.65;;
23866;SDS011;12114;53.404;-1.502;2023-01-15T15:59:56;13.07;;;5.30;;
23866;SDS011;12114;53.404;-1.502;2023-01-15T16:02:24;8.30;;;4.68;;
23866;SDS011;12114;53.404;-1.502;2023-01-15T16:04:51;10.02;;;4.45;;
23866;SDS011;12114;53.404;-1.502;2023-01-15T16:07:27;10.40;;;5.13;;
23866;SDS011;12114;53.404;-1.502;2023-01-15T16:09:57;8.85;;;4.28;;
23866;SDS011;12114;53.404;-1.502;2023-01-15T16:12:24;12.77;;;4.60;;
23866;SDS011;12114;53.404;-1.502;2023-01-15T16:14:50;8.55;;;4.10;;
23866;SDS011;12114;53.404;-1.502;2023-01-15T16:17:16;9.60;;;4.45;;
23866;SDS011;12114;53.404;-1.502;2023-01-15T16:19:45;8.63;;;5.03;;
23866;SDS011;12114;53.404;-1.502;2023-01-15T16:22:12;11.43;;;5.90;;
23866;SDS011;12114;53.404;-1.502;2023-01-15T16:24:39;13.82;;;5.93;;
23866;SDS011;12114;53.404;-1.502;2023-01-15T16:27:06;11.32;;;6.20;;
23866;SDS011;12114;53.404;-1.502;2023-01-15T16:29:33;14.43;;;6.28;;
23866;SDS011;12114;53.404;-1.502;2023-01-15T16:31:59;15.45;;;7.13;;
23866;SDS011;12114;53.404;-1.502;2023-01-15T16:34:27;16.55;;;7.22;;
23866;SDS011;12114;53.404;-1.502;2023-01-15T16:36:53;13.82;;;7.80;;
23866;SDS011;12114;53.404;-1.502;2023-01-15T16:39:21;17.13;;;8.77;;